Time,TemperatureC,DewpointC,PressurehPa,WindDirection,WindDirectionDegrees,WindSpeedKMH,WindSpeedGustKMH,Humidity,HourlyPrecipMM,Conditions,Clouds,dailyrainMM,SolarRadiationWatts/m^2,UVIndex,SoftwareType,DateUTC
2020-07-09 00:04:35,13.4,14.9,1018.0,SSW,202,0,0,84.7,0.0,,,0.0,0,0,n/a,2020-07-08T22:04:35Z
2020-07-09 00:07:35,13.4,14.9,1018.0,SSW,202,0,0,85,0.0,,,0.0,2,0,n/a,2020-07-08T22:07:35Z
2020-07-09 00:13:35,13.4,14.9,1018.0,SSW,202,0,0,85.2,0.0,,,0.0,0,0,n/a,2020-07-08T22:13:35Z
2020-07-09 00:19:35,13.4,15,1018.0,SW,225,0,0,85.3,0.0,,,0.0,2,0,n/a,2020-07-08T22:19:35Z
2020-07-09 00:22:35,13.4,14.8,1018.0,SW,225,0,0,85,0.0,,,0.0,0,0,n/a,2020-07-08T22:22:35Z
2020-07-09 00:28:33,13.3,14.9,1018.0,SSW,202,0,0,85.3,0.0,,,0.0,2,0,n/a,2020-07-08T22:28:33Z
2020-07-09 00:34:35,13.4,14.8,1018.0,SSW,202,0,0,85.3,0.0,,,0.0,0,0,n/a,2020-07-08T22:34:35Z
2020-07-09 00:37:35,13.4,14.8,1018.0,SSW,202,0,0,85.3,0.0,,,0.0,2,0,n/a,2020-07-08T22:37:35Z
2020-07-09 00:43:33,13.4,14.9,1018.0,WSW,247,0,0,85.4,0.0,,,0.0,0,0,n/a,2020-07-08T22:43:33Z
2020-07-09 00:49:35,13.4,14.9,1017.8,WSW,247,0,0,85.4,0.0,,,0.0,2,0,n/a,2020-07-08T22:49:35Z
2020-07-09 00:52:35,13.4,14.8,1017.8,WSW,247,0,0,85.3,0.0,,,0.0,2,0,n/a,2020-07-08T22:52:35Z
2020-07-09 00:58:33,13.3,14.8,1017.8,SW,225,0,0,85.2,0.0,,,0.0,2,0,n/a,2020-07-08T22:58:33Z
2020-07-09 01:04:35,13.3,14.8,1017.8,SSW,202,0,0,85.3,0.0,,,0.0,2,0,n/a,2020-07-08T23:04:35Z
2020-07-09 01:07:35,13.3,14.9,1017.8,SSW,202,0,0,85.3,0.0,,,0.0,0,0,n/a,2020-07-08T23:07:35Z
2020-07-09 01:13:34,13.3,14.8,1017.8,SSW,202,0,0,85.2,0.0,,,0.0,2,0,n/a,2020-07-08T23:13:34Z
2020-07-09 01:19:35,13.2,14.9,1017.5,North,0,0,0,85.6,0.0,,,0.0,2,0,n/a,2020-07-08T23:19:35Z
2020-07-09 01:22:35,13.3,14.8,1017.5,SSW,202,0,0,85.6,0.0,,,0.0,2,0,n/a,2020-07-08T23:22:35Z
2020-07-09 01:28:35,13.2,14.8,1017.5,SSW,202,0,0,85.6,0.0,,,0.0,2,0,n/a,2020-07-08T23:28:35Z
2020-07-09 01:34:35,13.2,14.7,1017.5,SSW,202,0,0,85.3,0.0,,,0.0,2,0,n/a,2020-07-08T23:34:35Z
2020-07-09 01:37:35,13.2,14.8,1017.5,SSW,202,0,0,85.7,0.0,,,0.0,2,0,n/a,2020-07-08T23:37:35Z
2020-07-09 01:43:35,13.3,14.8,1017.8,WSW,247,0,0,85.4,0.0,,,0.0,2,0,n/a,2020-07-08T23:43:35Z
2020-07-09 01:49:35,13.2,14.7,1017.5,WSW,247,0,0,85.4,0.0,,,0.0,2,0,n/a,2020-07-08T23:49:35Z
2020-07-09 01:52:35,13.2,14.7,1017.5,WSW,247,0,0,85.2,0.0,,,0.0,2,0,n/a,2020-07-08T23:52:35Z
2020-07-09 01:58:35,13.1,14.7,1017.5,West,260,1.3,3.2,85.5,0.0,,,0.0,0,0,n/a,2020-07-08T23:58:35Z
2020-07-09 02:04:35,13.2,14.7,1017.5,SSW,202,0,0,85.6,0.0,,,0.0,0,0,n/a,2020-07-09T00:04:35Z
2020-07-09 02:07:35,13.1,14.7,1017.5,SW,235,1.2,1.3,85.8,0.0,,,0.0,2,0,n/a,2020-07-09T00:07:35Z
2020-07-09 02:13:35,13.1,14.8,1017.3,SSW,202,0,0,85.9,0.0,,,0.0,2,0,n/a,2020-07-09T00:13:35Z
2020-07-09 02:19:35,13.1,14.7,1017.3,SSW,202,0,0,85.8,0.0,,,0.0,2,0,n/a,2020-07-09T00:19:35Z
2020-07-09 02:22:35,13.1,14.6,1017.3,WSW,247,1.1,1.5,85.8,0.0,,,0.0,2,0,n/a,2020-07-09T00:22:35Z
2020-07-09 02:28:35,13.1,14.8,1017.5,SW,225,0,0,86.1,0.0,,,0.0,2,0,n/a,2020-07-09T00:28:35Z
2020-07-09 02:34:35,13.1,14.7,1017.0,SSW,202,0,0,86,0.0,,,0.0,0,0,n/a,2020-07-09T00:34:35Z
2020-07-09 02:37:35,13,14.7,1017.3,SSW,202,0,0,85.9,0.0,,,0.0,2,0,n/a,2020-07-09T00:37:35Z
2020-07-09 02:43:35,13,14.7,1017.3,SSW,202,0,0,85.9,0.0,,,0.0,2,0,n/a,2020-07-09T00:43:35Z
2020-07-09 02:49:34,13.1,14.6,1017.3,SW,225,0,0,85.7,0.0,,,0.0,2,0,n/a,2020-07-09T00:49:34Z
2020-07-09 02:52:35,13,14.6,1017.0,WSW,247,0,0,85.4,0.0,,,0.0,0,0,n/a,2020-07-09T00:52:35Z
2020-07-09 02:58:35,13,14.7,1017.0,SSW,202,0,0,86.1,0.0,,,0.0,2,0,n/a,2020-07-09T00:58:35Z
2020-07-09 03:04:35,13,14.7,1017.0,SSW,202,0,0,86.1,0.0,,,0.0,2,0,n/a,2020-07-09T01:04:35Z
2020-07-09 03:07:35,13,14.6,1017.0,SSW,202,0,0,86.1,0.0,,,0.0,0,0,n/a,2020-07-09T01:07:35Z
2020-07-09 03:13:35,13,14.6,1017.0,SSW,202,0,0,85.7,0.0,,,0.0,0,0,n/a,2020-07-09T01:13:35Z
2020-07-09 03:19:35,13.1,14.6,1017.0,SSW,202,0,0,85.8,0.0,,,0.0,2,0,n/a,2020-07-09T01:19:35Z
2020-07-09 03:22:35,13.1,14.6,1017.3,SSW,202,0,0,85.9,0.0,,,0.0,2,0,n/a,2020-07-09T01:22:35Z
2020-07-09 03:28:33,13,14.7,1017.0,SSW,202,0,0,86,0.0,,,0.0,0,0,n/a,2020-07-09T01:28:33Z
2020-07-09 03:34:35,13,14.6,1017.0,SSW,202,0,0,86,0.0,,,0.0,2,0,n/a,2020-07-09T01:34:35Z
2020-07-09 03:37:34,13,14.6,1017.0,SW,225,0,0,86,0.0,,,0.0,0,0,n/a,2020-07-09T01:37:34Z
2020-07-09 03:43:35,13,14.6,1017.0,SSW,202,0,0,86.1,0.0,,,0.0,0,0,n/a,2020-07-09T01:43:35Z
2020-07-09 03:49:35,13,14.6,1017.0,SSW,202,0,0,86.1,0.0,,,0.0,0,0,n/a,2020-07-09T01:49:35Z
2020-07-09 03:52:36,13,14.5,1017.0,SSW,202,0,0,85.7,0.0,,,0.0,0,0,n/a,2020-07-09T01:52:36Z
2020-07-09 03:58:35,13,14.7,1017.0,SSW,202,0,0,86.3,0.0,,,0.0,0,0,n/a,2020-07-09T01:58:35Z
2020-07-09 04:04:35,13.1,14.6,1017.0,SW,225,0,0,86.1,0.0,,,0.0,0,0,n/a,2020-07-09T02:04:35Z
2020-07-09 04:07:35,13.1,14.6,1017.0,SSW,202,0,0,85.9,0.0,,,0.0,2,0,n/a,2020-07-09T02:07:35Z
2020-07-09 04:13:35,13.1,14.7,1017.0,SSW,202,0,0,86.3,0.0,,,0.0,0,0,n/a,2020-07-09T02:13:35Z
2020-07-09 04:19:35,13,14.7,1017.0,SSW,202,0,0,86.3,0.0,,,0.0,0,0,n/a,2020-07-09T02:19:35Z
2020-07-09 04:22:35,13.1,14.5,1017.0,SSW,202,0,0,85.5,0.0,,,0.0,2,0,n/a,2020-07-09T02:22:35Z
2020-07-09 04:28:35,13.1,14.7,1017.0,SW,214,0.6,1.3,86.4,0.0,,,0.0,2,0,n/a,2020-07-09T02:28:35Z
2020-07-09 04:34:35,13.1,14.7,1016.7,SSW,202,0,0,86.6,0.0,,,0.0,0,0,n/a,2020-07-09T02:34:35Z
2020-07-09 04:37:35,13.1,14.6,1016.7,SSW,202,0,0,86,0.0,,,0.0,2,0,n/a,2020-07-09T02:37:35Z
2020-07-09 04:43:35,13.1,14.7,1016.7,SSW,202,0,0,86.4,0.0,,,0.0,2,0,n/a,2020-07-09T02:43:35Z
2020-07-09 04:49:35,13.1,14.7,1016.7,SSW,202,0,0,86.2,0.0,,,0.0,2,0,n/a,2020-07-09T02:49:35Z
2020-07-09 04:52:35,13.1,14.7,1016.7,SSW,202,0,0,86.4,0.0,,,0.0,2,0,n/a,2020-07-09T02:52:35Z
2020-07-09 04:58:35,13.1,14.7,1016.7,SSW,202,0,0,86.4,0.0,,,0.0,2,0,n/a,2020-07-09T02:58:35Z
2020-07-09 05:04:35,13.1,14.7,1016.7,SSW,202,0,0,86.4,0.0,,,0.0,2,0,n/a,2020-07-09T03:04:35Z
2020-07-09 05:07:35,13.1,14.7,1016.7,SSW,202,0,0,86.3,0.0,,,0.0,2,0,n/a,2020-07-09T03:07:35Z
2020-07-09 05:13:35,13.1,14.7,1016.7,SSW,202,0,0,86.4,0.0,,,0.0,2,0,n/a,2020-07-09T03:13:35Z
2020-07-09 05:19:35,13.1,14.7,1016.7,SSW,202,0,0,86.6,0.0,,,0.0,2,0,n/a,2020-07-09T03:19:35Z
2020-07-09 05:22:35,13.2,14.8,1016.7,SSW,202,0,0,86.7,0.0,,,0.0,2,0,n/a,2020-07-09T03:22:35Z
2020-07-09 05:28:35,13.2,14.7,1016.7,SSW,202,0,0,86.7,0.0,,,0.0,2,0,n/a,2020-07-09T03:28:35Z
2020-07-09 05:34:35,13.2,14.7,1017.0,SSW,202,0,0,86.5,0.0,,,0.0,2,0,n/a,2020-07-09T03:34:35Z
2020-07-09 05:37:35,13.2,14.7,1017.0,SSW,202,0,0,86.4,0.0,,,0.0,2,0,n/a,2020-07-09T03:37:35Z
2020-07-09 05:43:35,13.2,14.8,1017.0,SSW,202,0,0,86.8,0.0,,,0.0,4,0,n/a,2020-07-09T03:43:35Z
2020-07-09 05:49:34,13.2,14.9,1016.7,SSW,202,0,0,87.1,0.0,,,0.0,4,0,n/a,2020-07-09T03:49:34Z
2020-07-09 05:52:35,13.2,14.9,1016.7,SSW,202,0,0,87.2,0.0,,,0.0,4,0,n/a,2020-07-09T03:52:35Z
2020-07-09 05:58:35,13.3,14.9,1016.7,SSW,202,0,0,87.3,0.0,,,0.0,6,0,n/a,2020-07-09T03:58:35Z
2020-07-09 06:04:33,13.3,14.9,1016.7,SSW,202,0,0,87.1,0.0,,,0.0,6,0,n/a,2020-07-09T04:04:33Z
2020-07-09 06:07:35,13.3,15,1016.7,SSW,202,0,0,87.4,0.0,,,0.0,6,0,n/a,2020-07-09T04:07:35Z
2020-07-09 06:13:35,13.3,14.9,1016.7,North,0,0,0,87.4,0.0,,,0.0,8,0,n/a,2020-07-09T04:13:35Z
2020-07-09 06:19:33,13.3,15,1016.5,South,180,0,0,87.6,0.0,,,0.0,8,0,n/a,2020-07-09T04:19:33Z
2020-07-09 06:22:35,13.3,15,1016.5,South,180,0,0,87.8,0.0,,,0.0,8,0,n/a,2020-07-09T04:22:35Z
2020-07-09 06:28:35,13.3,15.1,1016.5,ESE,112,0,0,88.2,0.0,,,0.0,6,0,n/a,2020-07-09T04:28:35Z
2020-07-09 06:34:33,13.3,15.1,1016.5,ESE,112,0,0,88.5,0.0,,,0.0,6,0,n/a,2020-07-09T04:34:33Z
2020-07-09 06:37:35,13.3,15.1,1016.5,ESE,112,0,0,88.7,0.0,,,0.0,8,0,n/a,2020-07-09T04:37:35Z
2020-07-09 06:43:35,13.3,15.1,1016.5,ESE,112,0,0,88.7,0.0,,,0.0,8,0,n/a,2020-07-09T04:43:35Z
2020-07-09 06:49:35,13.4,15,1016.5,ESE,112,0,0,88.5,0.0,,,0.0,10,0,n/a,2020-07-09T04:49:35Z
2020-07-09 06:52:35,13.4,15.1,1016.5,ESE,112,0,0,88.7,0.0,,,0.0,12,0,n/a,2020-07-09T04:52:35Z
2020-07-09 06:58:35,13.4,15.1,1016.5,ESE,112,0,0,88.9,0.0,,,0.0,12,0,n/a,2020-07-09T04:58:35Z
2020-07-09 07:04:29,13.4,15.2,1016.5,ESE,112,0,0,88.9,0.0,,,0.0,12,0,n/a,2020-07-09T05:04:29Z
2020-07-09 07:07:35,13.5,15.1,1016.5,ESE,112,0,0,88.8,0.0,,,0.0,14,0,n/a,2020-07-09T05:07:35Z
2020-07-09 07:13:35,13.5,15.2,1016.5,ESE,112,0,0,88.8,0.0,,,0.0,16,0,n/a,2020-07-09T05:13:35Z
2020-07-09 07:19:35,13.5,15.3,1016.5,ESE,112,0,0,88.8,0.0,,,0.0,20,0,n/a,2020-07-09T05:19:35Z
2020-07-09 07:22:35,13.6,15.3,1016.5,ESE,112,0,0,89.1,0.0,,,0.5,26,0,n/a,2020-07-09T05:22:35Z
2020-07-09 07:28:35,13.7,15.3,1016.5,ESE,112,0,0,89.1,0.0,,,0.5,28,0,n/a,2020-07-09T05:28:35Z
2020-07-09 07:34:35,13.8,15.4,1016.5,ESE,112,0,0,89,0.0,,,0.5,26,0,n/a,2020-07-09T05:34:35Z
2020-07-09 07:37:35,13.8,15.3,1016.5,ESE,112,0,0,89,0.0,,,0.5,26,0,n/a,2020-07-09T05:37:35Z
2020-07-09 07:43:35,13.8,15.4,1016.5,ESE,112,0,0,89,0.0,,,1.0,32,0.1,n/a,2020-07-09T05:43:35Z
2020-07-09 07:49:35,14,15.4,1016.5,ESE,112,0,0,89,0.0,,,1.0,44,0.2,n/a,2020-07-09T05:49:35Z
2020-07-09 07:52:35,14.1,15.5,1016.5,ESE,112,0,0,89,0.0,,,1.0,44,0.2,n/a,2020-07-09T05:52:35Z
2020-07-09 07:58:35,14.1,15.5,1016.5,ESE,112,0,0,88.8,0.0,,,1.0,38,0.2,n/a,2020-07-09T05:58:35Z
2020-07-09 08:04:35,14.1,15.6,1016.5,ESE,112,0,0,89.1,0.0,,,1.0,38,0.2,n/a,2020-07-09T06:04:35Z
2020-07-09 08:07:35,14.1,15.5,1016.5,ESE,112,0,0,89,0.0,,,1.0,38,0.2,n/a,2020-07-09T06:07:35Z
2020-07-09 08:13:35,14.1,15.6,1016.5,ESE,112,0,0,89.2,0.0,,,1.5,44,0.2,n/a,2020-07-09T06:13:35Z
2020-07-09 08:19:35,14.3,15.7,1016.5,ESE,112,0,0,89.3,0.0,,,1.5,42,0.2,n/a,2020-07-09T06:19:35Z
2020-07-09 08:22:34,14.3,15.7,1016.5,ESE,112,0,0,88.9,0.0,,,1.5,32,0.1,n/a,2020-07-09T06:22:34Z
2020-07-09 08:28:35,14.3,15.7,1016.5,ESE,112,0,0,89.2,0.0,,,1.5,28,0.1,n/a,2020-07-09T06:28:35Z
2020-07-09 08:34:35,14.3,15.8,1016.5,ESE,112,0,0,89.2,0.0,,,1.5,26,0.1,n/a,2020-07-09T06:34:35Z
2020-07-09 08:37:35,14.3,15.6,1016.5,ESE,112,0,0,88.5,0.0,,,1.5,32,0.1,n/a,2020-07-09T06:37:35Z
2020-07-09 08:43:35,14.4,15.8,1016.5,ESE,112,0,0,89.1,0.0,,,1.5,34,0.1,n/a,2020-07-09T06:43:35Z
2020-07-09 08:49:35,14.5,15.9,1016.5,ESE,112,0,0,89.2,0.0,,,1.5,32,0.1,n/a,2020-07-09T06:49:35Z
2020-07-09 08:52:35,14.5,15.8,1016.2,ESE,112,0,0,88.5,0.0,,,1.5,36,0.2,n/a,2020-07-09T06:52:35Z
2020-07-09 08:58:35,14.5,15.9,1016.2,ESE,112,0,0,88.8,0.0,,,1.5,46,0.2,n/a,2020-07-09T06:58:35Z
2020-07-09 09:04:35,14.6,16,1016.5,ESE,112,0,0,89.2,0.0,,,1.5,40,0.2,n/a,2020-07-09T07:04:35Z
2020-07-09 09:07:33,14.7,16,1016.5,ESE,112,0,0,89.1,0.0,,,1.5,36,0.2,n/a,2020-07-09T07:07:33Z
2020-07-09 09:13:35,14.8,16.1,1016.5,ESE,112,0,0,89.6,0.0,,,1.5,52,0.2,n/a,2020-07-09T07:13:35Z
2020-07-09 09:19:35,14.8,16.2,1016.5,ESE,112,0,0,89.6,0.0,,,1.5,42,0.2,n/a,2020-07-09T07:19:35Z
2020-07-09 09:22:35,14.8,16.2,1016.5,ESE,112,0,0,89.3,0.0,,,1.5,40,0.2,n/a,2020-07-09T07:22:35Z
2020-07-09 09:28:35,15.1,16.3,1016.5,ESE,112,0,0,89.9,0.0,,,1.5,60,0.2,n/a,2020-07-09T07:28:35Z
2020-07-09 09:34:35,15.1,16.3,1016.5,ESE,112,0,0,89.5,0.0,,,1.5,48,0.2,n/a,2020-07-09T07:34:35Z
2020-07-09 09:43:35,15.3,16.4,1016.5,ESE,112,0,0,89.7,0.0,,,1.5,64,0.3,n/a,2020-07-09T07:43:35Z
2020-07-09 09:49:35,15.5,16.5,1016.5,ESE,112,0,0,89.5,0.0,,,1.5,76,0.4,n/a,2020-07-09T07:49:35Z
2020-07-09 09:52:34,15.8,16.7,1016.2,ESE,112,0,0,89.9,0.0,,,1.5,80,0.3,n/a,2020-07-09T07:52:34Z
2020-07-09 09:58:35,15.9,16.8,1016.2,ESE,112,0,0,90.1,0.0,,,1.5,108,0.4,n/a,2020-07-09T07:58:35Z
2020-07-09 10:04:35,16.2,16.9,1016.2,ESE,112,0,0,90.3,0.0,,,1.5,92,0.4,n/a,2020-07-09T08:04:35Z
2020-07-09 10:07:35,16.3,17,1016.2,ESE,112,0,0,90.1,0.0,,,1.5,100,0.4,n/a,2020-07-09T08:07:35Z
2020-07-09 10:13:35,16.3,17.1,1016.2,SSW,202,1.9,4.6,90.2,0.0,,,1.5,92,0.4,n/a,2020-07-09T08:13:35Z
2020-07-09 10:19:35,16.4,17.3,1016.0,SW,225,0.7,1.6,90.4,0.0,,,1.5,86,0.4,n/a,2020-07-09T08:19:35Z
2020-07-09 10:22:29,16.6,17.4,1016.0,South,180,0,0,90.9,0.0,,,1.5,76,0.4,n/a,2020-07-09T08:22:29Z
2020-07-09 10:28:33,16.5,17.5,1016.0,WSW,258,3.4,7.2,90.6,0.0,,,1.5,68,0.4,n/a,2020-07-09T08:28:33Z
2020-07-09 10:34:35,16.6,17.7,1016.0,SW,232,4.1,4.9,90.5,0.0,,,1.5,94,0.6,n/a,2020-07-09T08:34:35Z
2020-07-09 10:37:35,16.7,17.6,1016.0,WSW,247,4.6,4.7,90.3,0.0,,,1.5,86,0.4,n/a,2020-07-09T08:37:35Z
2020-07-09 10:43:35,16.8,17.8,1016.0,SW,225,1.9,4.8,90.8,0.0,,,1.5,88,0.4,n/a,2020-07-09T08:43:35Z
2020-07-09 10:49:35,17.1,18,1016.0,SW,225,0,0,90.8,0.0,,,1.5,100,0.4,n/a,2020-07-09T08:49:35Z
2020-07-09 10:52:35,17.4,18,1016.0,WSW,247,0,0,91.1,0.0,,,1.5,142,0.6,n/a,2020-07-09T08:52:35Z
2020-07-09 10:58:35,17.4,18.1,1016.0,WSW,247,1.9,4.1,90.8,0.0,,,1.5,146,0.7,n/a,2020-07-09T08:58:35Z
2020-07-09 11:04:35,18.3,18.4,1016.0,WSW,255,1,2.6,91,0.0,,,1.5,228,1.2,n/a,2020-07-09T09:04:35Z
2020-07-09 11:07:35,17.9,18.5,1016.0,SW,225,3.1,3.2,91,0.0,,,1.5,126,0.6,n/a,2020-07-09T09:07:35Z
2020-07-09 11:13:35,18,18.5,1015.7,SW,225,1.6,3.7,90.3,0.0,,,1.5,104,0.4,n/a,2020-07-09T09:13:35Z
2020-07-09 11:19:35,18.2,18.6,1015.7,WSW,247,0.4,1.5,90.1,0.0,,,1.5,150,0.8,n/a,2020-07-09T09:19:35Z
2020-07-09 11:22:35,18.3,18.5,1015.7,WSW,247,0,0,89.9,0.0,,,1.5,128,0.6,n/a,2020-07-09T09:22:35Z
2020-07-09 11:28:35,18.4,18.8,1015.7,SSW,202,0,0,90.2,0.0,,,1.5,144,0.8,n/a,2020-07-09T09:28:35Z
2020-07-09 11:34:35,18.8,18.7,1015.7,SW,228,3,6.8,89.2,0.0,,,1.5,288,1.6,n/a,2020-07-09T09:34:35Z
2020-07-09 11:37:35,19.8,19.2,1015.7,SW,225,2.2,2.6,91.1,0.0,,,1.5,266,1.2,n/a,2020-07-09T09:37:35Z
2020-07-09 11:43:35,20.1,19.5,1015.7,WSW,244,4.7,7.5,90.4,0.0,,,1.5,388,2,n/a,2020-07-09T09:43:35Z
2020-07-09 11:49:35,20.5,19.8,1015.7,NNW,342,6.1,10.8,89.8,0.0,,,1.5,422,2.2,n/a,2020-07-09T09:49:35Z
2020-07-09 11:52:35,20.1,19.7,1015.7,WSW,247,11.8,13.7,87.4,0.0,,,1.5,266,1.4,n/a,2020-07-09T09:52:35Z
2020-07-09 11:58:35,19.8,19.2,1015.7,West,279,7.4,10,85.5,0.0,,,1.5,248,1.2,n/a,2020-07-09T09:58:35Z
2020-07-09 12:04:35,19.4,19.1,1015.7,West,277,8.7,10.9,84.7,0.0,,,1.5,208,1,n/a,2020-07-09T10:04:35Z
2020-07-09 12:07:35,20.2,19.1,1015.7,West,259,4.7,4.9,84.6,0.0,,,1.5,254,1.1,n/a,2020-07-09T10:07:35Z
2020-07-09 12:13:35,20.6,19.1,1015.7,WNW,282,2.4,3.3,83.6,0.0,,,1.5,326,1.9,n/a,2020-07-09T10:13:35Z
2020-07-09 12:19:35,20.5,19.3,1015.7,SW,229,8.8,12.3,83.3,0.0,,,1.5,328,1.7,n/a,2020-07-09T10:19:35Z
2020-07-09 12:22:35,21.7,19.4,1015.7,North,0,8.4,9,82.8,0.0,,,1.5,778,3.8,n/a,2020-07-09T10:22:35Z
2020-07-09 12:28:35,22.4,20.2,1015.7,WSW,247,9,10.5,84.1,0.0,,,1.5,484,2.3,n/a,2020-07-09T10:28:35Z
2020-07-09 12:34:35,22.3,20,1015.4,WSW,241,10.7,11.2,80.8,0.0,,,1.5,398,1.9,n/a,2020-07-09T10:34:35Z
2020-07-09 12:37:35,22.1,19.8,1015.4,WSW,247,11.2,12.5,79.2,0.0,,,1.5,376,1.6,n/a,2020-07-09T10:37:35Z
2020-07-09 12:43:35,23.8,20.7,1015.4,WSW,247,11,12.5,81.2,0.0,,,1.5,810,4.2,n/a,2020-07-09T10:43:35Z
2020-07-09 12:49:35,24.2,20.7,1015.4,WSW,254,9.4,13.5,77.1,0.0,,,1.5,708,3.8,n/a,2020-07-09T10:49:35Z
2020-07-09 12:52:35,23.6,20.8,1015.4,SW,234,6.8,8.1,75.8,0.0,,,1.5,420,2.1,n/a,2020-07-09T10:52:35Z
2020-07-09 12:58:35,22.5,20.1,1015.4,WSW,247,13,15.7,73.3,0.0,,,1.5,328,1.8,n/a,2020-07-09T10:58:35Z
2020-07-09 13:04:35,22.5,20.1,1015.4,SW,231,10.2,12.2,74.1,0.0,,,1.5,414,2.2,n/a,2020-07-09T11:04:35Z
2020-07-09 13:07:35,23.4,20.4,1015.4,WSW,247,13,13.8,75.1,0.0,,,1.5,274,1.4,n/a,2020-07-09T11:07:35Z
2020-07-09 13:13:35,22.3,20,1015.4,NNW,347,8.3,12.8,73.1,0.0,,,1.5,200,0.9,n/a,2020-07-09T11:13:35Z
2020-07-09 13:19:35,21.5,19.9,1015.4,SW,222,6.5,8.3,73.2,0.0,,,1.5,160,0.9,n/a,2020-07-09T11:19:35Z
2020-07-09 13:22:35,21.5,20,1015.4,WSW,247,5.6,6,74.2,0.0,,,1.5,194,1,n/a,2020-07-09T11:22:35Z
2020-07-09 13:28:35,22.1,20.5,1015.4,WSW,247,6.2,7.1,76.2,0.0,,,1.5,314,1.8,n/a,2020-07-09T11:28:35Z
2020-07-09 13:34:30,22.4,20.6,1015.4,WSW,247,6.5,6.9,75.7,0.0,,,1.5,254,1.5,n/a,2020-07-09T11:34:30Z
2020-07-09 13:37:35,21.9,20.4,1015.4,WSW,247,11.9,13,75,0.0,,,1.5,252,1.5,n/a,2020-07-09T11:37:35Z
2020-07-09 13:43:35,22.7,20.6,1015.4,West,259,6.5,11.1,75.5,0.0,,,1.5,270,1.5,n/a,2020-07-09T11:43:35Z
2020-07-09 13:49:35,22.7,20.4,1015.4,WSW,256,6.8,12.1,75.3,0.0,,,1.5,432,2.5,n/a,2020-07-09T11:49:35Z
2020-07-09 13:58:35,23.4,21.6,1015.4,WSW,250,7.9,9.6,77.2,0.0,,,1.5,688,4,n/a,2020-07-09T11:58:35Z
2020-07-09 14:04:35,23.7,21.3,1015.4,WSW,247,4,5.5,72.4,0.0,,,1.5,490,3,n/a,2020-07-09T12:04:35Z
2020-07-09 14:07:35,23.7,21.1,1015.4,WSW,252,5.8,6.7,71.3,0.0,,,1.5,484,3,n/a,2020-07-09T12:07:35Z
2020-07-09 14:13:35,24,20.7,1015.4,SW,232,8.1,10.5,68.9,0.0,,,1.5,770,4.4,n/a,2020-07-09T12:13:35Z
2020-07-09 14:19:35,24.6,21.3,1015.2,SSW,200,8.1,12.8,69.7,0.0,,,1.5,582,3.2,n/a,2020-07-09T12:19:35Z
2020-07-09 14:22:35,24.9,21.1,1014.9,WSW,257,3.4,4.9,68.4,0.0,,,1.5,544,2.8,n/a,2020-07-09T12:22:35Z
2020-07-09 14:28:35,24.5,21,1015.2,WNW,303,5.6,10.1,67.1,0.0,,,1.5,360,2,n/a,2020-07-09T12:28:35Z
2020-07-09 14:34:35,24.3,20.8,1014.9,WNW,292,5,8.6,66.3,0.0,,,1.5,372,1.9,n/a,2020-07-09T12:34:35Z
2020-07-09 14:37:35,24.3,20.5,1014.9,SW,214,3.7,3.8,65.5,0.0,,,1.5,324,1.7,n/a,2020-07-09T12:37:35Z
2020-07-09 14:43:35,24,20.4,1014.9,WSW,248,6,6.6,65.3,0.0,,,1.5,320,1.6,n/a,2020-07-09T12:43:35Z
2020-07-09 14:49:35,23.9,20.4,1014.9,WSW,242,9.7,10.9,65.9,0.0,,,1.5,372,1.8,n/a,2020-07-09T12:49:35Z
2020-07-09 14:52:35,24.4,20.3,1014.6,SW,226,19.7,25.2,65.1,0.0,,,1.5,776,3.8,n/a,2020-07-09T12:52:35Z
2020-07-09 14:58:35,24.9,20.4,1014.9,WSW,247,11.2,15.6,64,0.0,,,1.5,738,3.5,n/a,2020-07-09T12:58:35Z
2020-07-09 15:04:35,24.6,20.6,1014.6,WNW,284,11.9,16.1,63.8,0.0,,,1.5,364,1.9,n/a,2020-07-09T13:04:35Z
2020-07-09 15:07:35,25,20.2,1014.6,West,266,3.2,3.8,63.1,0.0,,,1.5,248,1.2,n/a,2020-07-09T13:07:35Z
2020-07-09 15:13:35,24.5,20,1014.6,West,281,8.6,14.8,62.5,0.0,,,1.5,248,1.2,n/a,2020-07-09T13:13:35Z
2020-07-09 15:19:35,24.9,20.2,1014.6,WSW,249,5.5,8.7,62.8,0.0,,,1.5,830,3.8,n/a,2020-07-09T13:19:35Z
2020-07-09 15:22:35,26.1,21,1014.6,WSW,247,16,16.1,64.4,0.0,,,1.5,866,3.8,n/a,2020-07-09T13:22:35Z
2020-07-09 15:28:35,26,21,1014.4,SW,234,9,10.5,62.3,0.0,,,1.5,860,3.5,n/a,2020-07-09T13:28:35Z
2020-07-09 15:34:35,26.5,21.2,1014.4,WSW,250,8.9,14.3,61.2,0.0,,,1.5,862,3.6,n/a,2020-07-09T13:34:35Z
2020-07-09 15:37:35,25.6,20.4,1014.4,WSW,247,9.8,10.5,57.6,0.0,,,1.5,194,1.1,n/a,2020-07-09T13:37:35Z
2020-07-09 15:43:33,25.1,20.7,1014.4,West,280,9.5,11.8,59.5,0.0,,,1.5,636,2.8,n/a,2020-07-09T13:43:33Z
2020-07-09 15:49:35,25.6,20.9,1014.4,WSW,237,12.5,15,60,0.0,,,1.5,388,1.9,n/a,2020-07-09T13:49:35Z
2020-07-09 15:52:35,24.8,20.6,1014.4,WSW,247,6.1,6.6,58.5,0.0,,,1.5,594,2.5,n/a,2020-07-09T13:52:35Z
2020-07-09 15:58:35,25.6,20.8,1014.4,NNW,340,4.4,10,59.1,0.0,,,1.5,836,3,n/a,2020-07-09T13:58:35Z
2020-07-09 16:04:34,26.3,20.8,1014.1,WSW,247,8.6,11.2,57.8,0.0,,,1.5,758,2.6,n/a,2020-07-09T14:04:34Z
2020-07-09 16:07:35,25.8,20.9,1014.1,WSW,247,7.6,8.2,56.8,0.0,,,1.5,758,2.5,n/a,2020-07-09T14:07:35Z
2020-07-09 16:13:35,25.9,20.6,1014.1,NW,307,10.2,14.1,55.7,0.0,,,1.5,750,2.5,n/a,2020-07-09T14:13:35Z
2020-07-09 16:19:35,26.2,20,1014.1,West,260,9,11.8,54.1,0.0,,,1.5,746,2.4,n/a,2020-07-09T14:19:35Z
2020-07-09 16:22:33,25.4,20,1013.9,WSW,258,7.1,7.2,54.2,0.0,,,1.5,188,1,n/a,2020-07-09T14:22:33Z
2020-07-09 16:28:35,25,19.3,1014.1,WNW,296,8.1,10.3,54,0.0,,,1.5,746,2.2,n/a,2020-07-09T14:28:35Z
2020-07-09 16:34:35,25.5,19.5,1013.9,West,272,3.5,5.2,54.4,0.0,,,1.5,848,2.4,n/a,2020-07-09T14:34:35Z